Terminal Aerodrome Forecast
Issued by NWS

Home | Current Version | Previous Version | Text Only | Print | Product List | Glossary On
Versions: 1 2 3 4 5 6 7 8 9 10 11 12
412
FTUS46 KSGX 232328
TAFONT
TAF
KONT 232328Z 2400/2506 22008KT P6SM FEW090
     FM240400 06007KT P6SM SKC
     FM241000 VRB05KT P6SM SKC
     FM242200 26009KT P6SM SKC
     FM250400 VRB03KT P6SM SKC=

USA.gov is the U.S. government's official web portal to all federal, state and local government web resources and services.